Time;durP1;ratioP1;P1;durP2;ratioP2;P2;SDS_P1;SDS_P2;PMS_P1;PMS_P2;Temp;Humidity;BMP_temperature;BMP_pressure;BME280_temperature;BME280_humidity;BME280_pressure;Samples;Min_cycle;Max_cycle;Signal;HPM_P1;HPM_P2
2023/12/22 00:02:06;;;;;;;4.47;1.40;;;5.50;99.90;;;;;;5043947;28;20201;-72
2023/12/22 00:04:33;;;;;;;5.40;1.50;;;5.40;99.90;;;;;;5038280;28;20323;-73
2023/12/22 00:07:01;;;;;;;5.73;1.60;;;5.30;99.90;;;;;;5042230;28;20291;-72
2023/12/22 00:09:28;;;;;;;4.43;1.60;;;5.30;99.90;;;;;;5035991;28;20423;-72
2023/12/22 00:11:55;;;;;;;2.70;1.57;;;5.20;99.90;;;;;;5040343;28;20215;-73
2023/12/22 00:14:22;;;;;;;5.43;1.60;;;5.20;99.90;;;;;;5043628;28;20295;-72
2023/12/22 00:16:49;;;;;;;3.87;1.67;;;5.20;99.90;;;;;;5046695;28;20235;-74
2023/12/22 00:19:15;;;;;;;9.87;2.53;;;5.20;99.90;;;;;;5046975;28;20242;-73
2023/12/22 00:21:42;;;;;;;8.77;2.43;;;5.20;99.90;;;;;;5047145;28;20282;-72
2023/12/22 00:24:10;;;;;;;8.73;2.13;;;5.20;99.90;;;;;;5046992;28;20318;-73
2023/12/22 00:26:37;;;;;;;6.07;2.17;;;5.20;99.90;;;;;;5047176;28;20291;-72
2023/12/22 00:29:04;;;;;;;7.90;2.50;;;5.20;99.90;;;;;;5035786;28;20211;-72
2023/12/22 00:31:31;;;;;;;5.17;2.23;;;5.20;99.90;;;;;;5027299;28;20307;-73
2023/12/22 00:33:58;;;;;;;6.17;2.33;;;5.20;99.90;;;;;;5043004;28;20315;-73
2023/12/22 00:36:25;;;;;;;5.27;1.87;;;5.20;99.90;;;;;;5046004;28;20664;-73
2023/12/22 00:38:52;;;;;;;7.47;1.93;;;5.30;99.90;;;;;;5042812;28;20201;-73
2023/12/22 00:41:20;;;;;;;6.97;2.60;;;5.20;99.90;;;;;;5036712;28;20207;-72
2023/12/22 00:43:47;;;;;;;6.93;2.03;;;5.20;99.90;;;;;;5044497;28;20323;-73
2023/12/22 00:46:14;;;;;;;7.03;2.30;;;5.30;99.90;;;;;;5046842;28;20258;-73
2023/12/22 00:48:41;;;;;;;7.83;2.50;;;5.30;99.90;;;;;;5046638;28;20583;-73
2023/12/22 00:51:08;;;;;;;6.20;2.30;;;5.20;99.90;;;;;;5046515;28;20746;-73
2023/12/22 00:53:35;;;;;;;3.87;1.83;;;5.10;99.90;;;;;;5046496;28;20204;-73
2023/12/22 00:56:02;;;;;;;4.20;1.70;;;5.10;99.90;;;;;;5046533;28;20303;-73
2023/12/22 00:58:31;;;;;;;5.90;1.90;;;5.00;99.90;;;;;;5035102;28;20209;-74
2023/12/22 01:00:58;;;;;;;7.10;1.97;;;5.00;99.90;;;;;;5031647;28;20205;-72
2023/12/22 01:03:24;;;;;;;6.97;1.97;;;4.90;99.90;;;;;;5069985;28;20779;-72
2023/12/22 01:05:51;;;;;;;8.47;1.83;;;4.90;99.90;;;;;;5059590;28;20300;-72
2023/12/22 01:08:18;;;;;;;5.47;1.70;;;4.90;99.90;;;;;;5050105;28;20278;-72
2023/12/22 01:10:45;;;;;;;3.50;1.43;;;4.90;99.90;;;;;;5050384;28;20291;-72
2023/12/22 01:13:12;;;;;;;6.33;2.43;;;4.90;99.90;;;;;;5049561;28;20214;-71
2023/12/22 01:15:40;;;;;;;8.10;2.00;;;4.90;99.90;;;;;;5047809;28;20250;-71
2023/12/22 01:18:07;;;;;;;5.07;1.90;;;4.90;99.90;;;;;;5039520;28;20475;-71
2023/12/22 01:20:34;;;;;;;5.10;1.87;;;5.00;99.90;;;;;;5030208;28;20278;-72
2023/12/22 01:23:01;;;;;;;3.97;1.83;;;4.90;99.90;;;;;;5029882;28;20241;-72
2023/12/22 01:25:28;;;;;;;3.80;1.70;;;4.90;99.90;;;;;;5030249;28;20284;-72
2023/12/22 01:27:54;;;;;;;4.73;1.90;;;4.90;99.90;;;;;;5029808;28;20292;-73
2023/12/22 01:30:21;;;;;;;6.83;1.80;;;4.90;99.90;;;;;;5030328;28;20295;-72
2023/12/22 01:32:50;;;;;;;4.90;1.80;;;5.00;99.90;;;;;;5029949;28;20215;-72
2023/12/22 01:35:16;;;;;;;7.50;2.27;;;4.90;99.90;;;;;;5033960;28;20296;-72
2023/12/22 01:37:43;;;;;;;9.10;2.00;;;4.80;99.90;;;;;;5049290;28;20258;-72
2023/12/22 01:40:10;;;;;;;9.33;2.37;;;4.80;99.90;;;;;;5049341;28;20243;-72
2023/12/22 01:42:38;;;;;;;5.70;1.83;;;4.80;99.90;;;;;;5037501;28;20215;-72
2023/12/22 01:45:06;;;;;;;4.37;1.57;;;4.80;99.90;;;;;;5029011;28;20239;-72
2023/12/22 01:47:32;;;;;;;8.03;1.67;;;4.80;99.90;;;;;;5048925;28;20244;-72
2023/12/22 01:50:02;;;;;;;5.67;2.03;;;4.80;99.90;;;;;;5041589;28;20742;-72
2023/12/22 01:52:29;;;;;;;8.47;1.70;;;4.80;99.90;;;;;;5049186;28;21022;-72
2023/12/22 01:54:56;;;;;;;6.93;2.23;;;4.80;99.90;;;;;;5047526;28;20715;-72
2023/12/22 01:57:23;;;;;;;3.73;1.77;;;4.80;99.90;;;;;;5049150;28;20207;-74
2023/12/22 01:59:50;;;;;;;6.77;1.73;;;4.80;99.90;;;;;;5048714;28;20307;-72
2023/12/22 02:02:17;;;;;;;5.87;1.63;;;4.80;99.90;;;;;;5048753;28;20303;-71
2023/12/22 02:04:46;;;;;;;6.30;2.10;;;4.70;99.90;;;;;;5046611;28;20227;-71
2023/12/22 02:07:15;;;;;;;7.03;2.17;;;4.70;99.90;;;;;;5039838;28;20284;-71
2023/12/22 02:09:41;;;;;;;8.73;2.27;;;4.70;99.90;;;;;;5040355;28;20268;-71
2023/12/22 02:12:08;;;;;;;7.43;2.03;;;4.70;99.90;;;;;;5039571;28;20205;-71
2023/12/22 02:14:35;;;;;;;4.37;1.60;;;4.70;99.90;;;;;;5036794;28;20287;-73
2023/12/22 02:17:12;;;;;;;6.63;2.07;;;4.60;99.90;;;;;;5037577;28;20295;-74
2023/12/22 02:19:43;;;;;;;8.93;2.43;;;4.60;99.90;;;;;;5040587;28;20279;-73
2023/12/22 02:22:11;;;;;;;8.73;2.23;;;4.60;99.90;;;;;;5037729;28;20569;-74
2023/12/22 02:24:40;;;;;;;5.30;2.27;;;4.60;99.90;;;;;;5039554;28;20319;-75
2023/12/22 02:27:13;;;;;;;4.13;1.80;;;4.60;99.90;;;;;;5038323;28;20197;-74
2023/12/22 02:29:47;;;;;;;5.60;1.70;;;4.60;99.90;;;;;;5033593;28;20193;-74
2023/12/22 02:32:23;;;;;;;6.40;1.80;;;4.60;99.90;;;;;;5048031;28;20215;-74
2023/12/22 02:34:52;;;;;;;4.10;1.50;;;4.60;99.90;;;;;;5047589;28;20599;-74
2023/12/22 02:37:21;;;;;;;2.40;1.30;;;4.50;99.90;;;;;;5047964;28;20570;-74
2023/12/22 02:39:50;;;;;;;4.33;1.40;;;4.60;99.90;;;;;;5044273;28;20633;-73
2023/12/22 02:42:18;;;;;;;4.60;1.23;;;4.50;99.90;;;;;;5046344;28;20704;-72
2023/12/22 02:44:45;;;;;;;4.20;1.73;;;4.50;99.90;;;;;;5048020;28;20750;-71
2023/12/22 02:47:12;;;;;;;4.13;1.60;;;4.60;99.90;;;;;;5047578;28;20838;-71
2023/12/22 02:49:38;;;;;;;4.37;1.57;;;4.60;99.90;;;;;;5028142;28;20215;-71
2023/12/22 02:52:06;;;;;;;3.03;1.20;;;4.60;99.90;;;;;;5048380;28;20297;-72
2023/12/22 02:54:33;;;;;;;2.17;1.13;;;4.50;99.90;;;;;;5046456;28;20378;-72
2023/12/22 02:57:01;;;;;;;2.60;1.03;;;4.50;99.90;;;;;;5048166;28;20235;-72
2023/12/22 02:59:28;;;;;;;7.50;1.40;;;4.50;99.90;;;;;;5047782;28;20287;-73
2023/12/22 03:01:55;;;;;;;1.40;0.87;;;4.50;99.90;;;;;;5047827;28;20244;-73
2023/12/22 03:04:22;;;;;;;3.73;1.43;;;4.40;99.90;;;;;;5047592;28;20224;-73
2023/12/22 03:06:49;;;;;;;4.87;1.37;;;4.50;99.90;;;;;;5032010;28;20207;-73
2023/12/22 03:09:16;;;;;;;1.90;0.97;;;4.40;99.90;;;;;;5047036;28;20247;-72
2023/12/22 03:11:43;;;;;;;2.33;1.20;;;4.50;99.90;;;;;;5047584;28;20303;-74
2023/12/22 03:14:11;;;;;;;5.27;1.20;;;4.40;99.90;;;;;;5047099;28;20303;-73
2023/12/22 03:16:38;;;;;;;3.67;1.23;;;4.40;99.90;;;;;;5047677;28;20307;-73
2023/12/22 03:19:05;;;;;;;3.57;1.40;;;4.40;99.90;;;;;;5046207;28;20746;-72
2023/12/22 03:21:32;;;;;;;4.23;1.50;;;4.40;99.90;;;;;;5047333;28;20737;-71
2023/12/22 03:23:59;;;;;;;3.43;1.53;;;4.40;99.90;;;;;;5046820;28;20327;-71
2023/12/22 03:26:28;;;;;;;4.33;1.20;;;4.30;99.90;;;;;;5046802;28;20661;-71
2023/12/22 03:28:55;;;;;;;5.23;1.33;;;4.40;99.90;;;;;;5046156;28;20223;-71
2023/12/22 03:31:32;;;;;;;7.07;1.70;;;4.30;99.90;;;;;;5046635;28;20211;-70
2023/12/22 03:33:59;;;;;;;4.43;1.67;;;4.40;99.90;;;;;;5046461;28;20291;-70
2023/12/22 03:36:26;;;;;;;5.07;1.30;;;4.40;99.90;;;;;;5047302;28;20211;-72
2023/12/22 03:38:53;;;;;;;5.40;1.90;;;4.40;99.90;;;;;;5047216;28;20234;-73
2023/12/22 03:41:20;;;;;;;4.20;1.60;;;4.40;99.90;;;;;;5046979;28;20321;-73
2023/12/22 03:43:47;;;;;;;5.07;1.23;;;4.40;99.90;;;;;;5046829;28;20215;-71
2023/12/22 03:46:14;;;;;;;2.93;1.40;;;4.40;99.90;;;;;;5047124;28;20672;-72
2023/12/22 03:48:42;;;;;;;6.60;1.63;;;4.40;99.90;;;;;;5046975;28;20580;-71
2023/12/22 03:51:10;;;;;;;7.30;1.47;;;4.50;99.90;;;;;;5033453;28;20295;-72
2023/12/22 03:53:37;;;;;;;5.40;1.80;;;4.50;99.90;;;;;;5036450;28;20228;-71
2023/12/22 03:56:04;;;;;;;3.97;1.40;;;4.50;99.90;;;;;;5046958;28;20295;-72
2023/12/22 03:58:31;;;;;;;5.77;1.53;;;4.40;99.90;;;;;;5046793;28;20291;-72
2023/12/22 04:00:58;;;;;;;2.83;1.00;;;4.40;99.90;;;;;;5046824;28;20277;-72
2023/12/22 04:03:25;;;;;;;1.23;0.80;;;4.40;99.90;;;;;;5046936;28;20263;-72
2023/12/22 04:05:54;;;;;;;1.67;0.70;;;4.40;99.90;;;;;;5034118;28;20717;-72
2023/12/22 04:08:21;;;;;;;1.47;0.80;;;4.30;99.90;;;;;;5027130;28;20251;-72
2023/12/22 04:10:47;;;;;;;3.27;0.30;;;4.20;99.90;;;;;;5033483;28;20217;-72
2023/12/22 04:13:14;;;;;;;3.23;0.80;;;4.10;99.90;;;;;;5046777;28;20240;-72
2023/12/22 04:15:41;;;;;;;2.77;1.00;;;4.00;99.90;;;;;;5046907;28;20755;-72
2023/12/22 04:18:08;;;;;;;1.63;0.67;;;4.00;99.90;;;;;;5033529;28;20287;-72
2023/12/22 04:20:35;;;;;;;2.73;0.63;;;3.90;99.90;;;;;;5027112;28;20244;-72
2023/12/22 04:23:04;;;;;;;4.10;0.97;;;3.90;99.90;;;;;;5026969;28;20289;-72
2023/12/22 04:25:31;;;;;;;4.37;1.00;;;3.80;99.90;;;;;;5043747;28;20698;-72
2023/12/22 04:27:58;;;;;;;1.30;0.80;;;3.80;99.90;;;;;;5046482;28;20291;-72
2023/12/22 04:30:26;;;;;;;2.20;0.53;;;3.80;99.90;;;;;;5029132;28;20300;-72
2023/12/22 04:32:53;;;;;;;2.63;1.03;;;3.80;99.90;;;;;;5026987;28;20208;-72
2023/12/22 04:35:20;;;;;;;2.37;0.67;;;3.70;99.90;;;;;;5039312;28;20707;-72
2023/12/22 04:37:47;;;;;;;1.93;1.07;;;3.70;99.90;;;;;;5050729;28;20274;-74
2023/12/22 04:40:15;;;;;;;4.87;1.20;;;3.80;99.90;;;;;;5050422;28;20955;-74
2023/12/22 04:42:43;;;;;;;4.73;1.33;;;3.80;99.90;;;;;;5044711;28;20240;-73
2023/12/22 04:45:10;;;;;;;4.30;1.10;;;3.90;99.90;;;;;;5049843;28;20579;-75
2023/12/22 04:47:37;;;;;;;2.03;0.90;;;3.90;99.90;;;;;;5065131;28;20302;-73
2023/12/22 04:50:04;;;;;;;2.50;1.07;;;3.80;99.90;;;;;;5052480;28;20201;-73
2023/12/22 04:52:31;;;;;;;1.73;0.70;;;3.80;99.90;;;;;;5029861;28;20631;-73
2023/12/22 04:54:58;;;;;;;3.60;1.07;;;3.80;99.90;;;;;;5029846;28;20636;-72
2023/12/22 04:57:26;;;;;;;1.70;0.93;;;3.60;99.90;;;;;;5029999;28;20657;-72
2023/12/22 04:59:53;;;;;;;2.27;0.80;;;3.40;99.90;;;;;;5048942;28;20244;-72
2023/12/22 05:02:22;;;;;;;2.77;0.87;;;3.40;99.90;;;;;;5037514;28;20215;-72
2023/12/22 05:04:49;;;;;;;1.53;0.60;;;3.20;99.90;;;;;;5031147;28;20260;-72
2023/12/22 05:07:16;;;;;;;0.53;0.50;;;3.20;99.90;;;;;;5049543;28;20295;-74
2023/12/22 05:09:43;;;;;;;1.73;0.50;;;3.10;99.90;;;;;;5049220;28;20319;-73
2023/12/22 05:12:10;;;;;;;1.07;0.50;;;3.10;99.90;;;;;;5049557;28;20323;-73
2023/12/22 05:14:38;;;;;;;1.03;0.63;;;3.10;99.90;;;;;;5049560;28;20239;-74
2023/12/22 05:17:05;;;;;;;1.50;0.30;;;3.10;99.90;;;;;;5030022;28;20713;-72
2023/12/22 05:19:32;;;;;;;0.83;0.50;;;3.10;99.90;;;;;;5029459;28;20296;-72
2023/12/22 05:21:59;;;;;;;3.33;0.83;;;3.20;99.90;;;;;;5048335;28;20239;-72
2023/12/22 05:24:26;;;;;;;1.93;0.50;;;3.20;99.90;;;;;;5049428;28;20204;-72
2023/12/22 05:26:54;;;;;;;0.73;0.73;;;3.30;99.90;;;;;;5045258;28;20205;-72
2023/12/22 05:29:21;;;;;;;3.13;0.80;;;3.20;99.90;;;;;;5029650;28;20213;-72
2023/12/22 05:31:50;;;;;;;3.43;0.70;;;3.30;99.90;;;;;;5043823;28;20286;-72
2023/12/22 05:34:17;;;;;;;2.90;0.90;;;3.30;99.90;;;;;;5048848;28;20606;-72
2023/12/22 05:36:44;;;;;;;2.27;0.80;;;3.30;99.90;;;;;;5049291;28;20324;-72
2023/12/22 05:39:10;;;;;;;2.40;0.77;;;3.20;99.90;;;;;;5048054;28;20307;-71
2023/12/22 05:41:37;;;;;;;4.07;1.23;;;3.20;99.90;;;;;;5048743;28;20204;-74
2023/12/22 05:44:05;;;;;;;0.97;0.63;;;3.20;99.90;;;;;;5065935;28;20239;-74
2023/12/22 05:46:36;;;;;;;1.50;0.83;;;3.20;99.90;;;;;;5052256;28;20259;-74
2023/12/22 05:49:04;;;;;;;2.63;1.00;;;3.20;99.90;;;;;;5045431;28;20201;-74
2023/12/22 05:51:37;;;;;;;2.07;0.70;;;3.20;99.90;;;;;;5045894;28;20298;-73
2023/12/22 05:54:04;;;;;;;3.73;0.80;;;3.20;99.90;;;;;;5046997;28;20207;-72
2023/12/22 05:56:32;;;;;;;2.93;1.00;;;3.20;99.90;;;;;;5040249;28;20296;-71
2023/12/22 05:58:59;;;;;;;2.23;0.67;;;3.20;99.90;;;;;;5036892;28;20662;-71
2023/12/22 06:01:26;;;;;;;3.13;0.70;;;3.30;99.90;;;;;;5031291;28;20205;-71
2023/12/22 06:03:54;;;;;;;1.83;0.70;;;3.30;99.90;;;;;;5028673;28;20255;-71
2023/12/22 06:06:23;;;;;;;3.97;1.10;;;3.30;99.90;;;;;;5028877;28;20275;-71
2023/12/22 06:08:50;;;;;;;5.03;1.30;;;3.30;99.90;;;;;;5030964;28;20327;-72
2023/12/22 06:11:17;;;;;;;1.57;0.73;;;3.40;99.90;;;;;;5037913;28;20662;-72
2023/12/22 06:13:43;;;;;;;1.87;0.73;;;3.30;99.90;;;;;;5028677;28;20212;-71
2023/12/22 06:16:13;;;;;;;1.87;0.60;;;3.40;99.90;;;;;;5029981;28;20299;-72
2023/12/22 06:18:40;;;;;;;1.47;0.60;;;3.40;99.90;;;;;;5048645;28;20214;-73
2023/12/22 06:21:06;;;;;;;1.40;0.40;;;3.40;99.90;;;;;;5041449;28;20201;-75
2023/12/22 06:23:36;;;;;;;2.67;0.50;;;3.40;99.90;;;;;;5028839;28;20325;-74
2023/12/22 06:26:03;;;;;;;1.57;0.33;;;3.40;99.90;;;;;;5028452;28;20240;-74
2023/12/22 06:28:30;;;;;;;1.43;0.63;;;3.40;99.90;;;;;;5045845;28;20214;-74
2023/12/22 06:30:56;;;;;;;2.10;0.67;;;3.40;99.90;;;;;;5048002;28;20298;-74
2023/12/22 06:33:23;;;;;;;1.40;0.60;;;3.40;99.90;;;;;;5047441;28;20211;-72
2023/12/22 06:35:53;;;;;;;1.93;0.67;;;3.40;99.90;;;;;;5048197;28;20315;-72
2023/12/22 06:38:20;;;;;;;1.43;0.60;;;3.40;99.90;;;;;;5048087;28;20218;-72
2023/12/22 06:40:48;;;;;;;1.37;0.70;;;3.40;99.90;;;;;;5048199;28;20212;-74
2023/12/22 06:43:16;;;;;;;1.33;0.50;;;3.40;99.90;;;;;;5045925;28;20242;-73
2023/12/22 06:45:43;;;;;;;1.13;0.40;;;3.30;99.90;;;;;;5047340;28;20311;-73
2023/12/22 06:48:10;;;;;;;0.90;0.30;;;3.40;99.90;;;;;;5047926;28;20295;-73
2023/12/22 06:50:39;;;;;;;1.97;0.67;;;3.30;99.90;;;;;;5047986;28;20200;-73
2023/12/22 06:53:07;;;;;;;1.93;0.80;;;3.30;99.90;;;;;;5047805;28;20204;-72
2023/12/22 06:55:34;;;;;;;2.07;0.87;;;3.30;99.90;;;;;;5047905;28;20211;-73
2023/12/22 06:58:02;;;;;;;1.83;0.53;;;3.40;99.90;;;;;;5032521;28;20212;-73
2023/12/22 07:00:29;;;;;;;2.20;1.03;;;3.40;99.90;;;;;;5027466;28;20213;-73
2023/12/22 07:02:56;;;;;;;1.40;0.60;;;3.50;99.90;;;;;;5027798;28;20310;-72
2023/12/22 07:05:36;;;;;;;1.70;0.67;;;3.50;99.90;;;;;;5029343;28;20224;-73
2023/12/22 07:08:04;;;;;;;1.30;0.67;;;3.60;99.90;;;;;;5027545;28;20240;-74
2023/12/22 07:10:31;;;;;;;2.43;0.77;;;3.70;99.90;;;;;;5031992;28;20289;-74
2023/12/22 07:12:58;;;;;;;2.87;0.93;;;3.70;99.90;;;;;;5047384;28;20210;-74
2023/12/22 07:15:28;;;;;;;1.33;0.60;;;3.70;99.90;;;;;;5047630;28;20315;-74
2023/12/22 07:17:55;;;;;;;3.27;0.90;;;3.70;99.90;;;;;;5047636;28;20219;-74
2023/12/22 07:20:22;;;;;;;2.27;1.00;;;3.70;99.90;;;;;;5047338;28;20295;-74
2023/12/22 07:22:48;;;;;;;2.10;0.87;;;3.70;99.90;;;;;;5029707;28;20552;-74
2023/12/22 07:25:15;;;;;;;3.77;1.03;;;3.70;99.90;;;;;;5026513;28;20270;-74
2023/12/22 07:27:42;;;;;;;3.07;0.80;;;3.70;99.90;;;;;;5032407;28;20305;-74
2023/12/22 07:30:15;;;;;;;0.80;0.70;;;3.70;99.90;;;;;;5043355;28;20295;-74
2023/12/22 07:32:44;;;;;;;2.20;0.40;;;3.70;99.90;;;;;;5042297;28;20208;-74
2023/12/22 07:35:11;;;;;;;2.40;0.57;;;3.70;99.90;;;;;;5041189;28;20212;-74
2023/12/22 07:37:38;;;;;;;3.10;0.97;;;3.70;99.90;;;;;;5027166;28;20244;-74
2023/12/22 07:40:07;;;;;;;4.47;0.90;;;3.70;99.90;;;;;;5029122;28;20515;-75
2023/12/22 07:42:33;;;;;;;1.60;0.77;;;3.80;99.90;;;;;;5046780;28;20670;-75
2023/12/22 07:45:00;;;;;;;1.67;0.60;;;3.80;99.90;;;;;;5046923;28;20291;-73
2023/12/22 07:47:28;;;;;;;3.80;1.07;;;3.80;99.90;;;;;;5046098;28;20259;-73
2023/12/22 07:49:56;;;;;;;2.10;0.70;;;3.80;99.90;;;;;;5032047;28;20199;-73
2023/12/22 07:52:23;;;;;;;2.00;1.10;;;3.80;99.90;;;;;;5030148;28;20681;-73
2023/12/22 07:54:51;;;;;;;4.67;1.10;;;3.80;99.90;;;;;;5042732;28;20291;-74
2023/12/22 07:57:17;;;;;;;6.50;1.30;;;3.90;99.90;;;;;;5036418;28;20296;-74
2023/12/22 07:59:44;;;;;;;2.80;1.07;;;3.90;99.90;;;;;;5037216;28;20300;-74
2023/12/22 08:02:11;;;;;;;2.53;0.87;;;3.90;99.90;;;;;;5025737;28;20432;-74
2023/12/22 08:04:38;;;;;;;1.47;0.90;;;3.90;99.90;;;;;;5030633;28;20256;-75
2023/12/22 08:07:07;;;;;;;0.90;0.70;;;3.90;99.90;;;;;;5033569;28;20298;-74
2023/12/22 08:09:33;;;;;;;0.70;0.70;;;3.80;99.90;;;;;;5036467;28;20232;-74
2023/12/22 08:12:00;;;;;;;3.00;0.50;;;3.80;99.90;;;;;;5042852;28;20200;-74
2023/12/22 08:14:27;;;;;;;1.13;0.50;;;3.70;99.90;;;;;;5037420;28;20298;-75
2023/12/22 08:16:54;;;;;;;1.07;0.60;;;3.60;99.90;;;;;;5037113;28;20208;-74
2023/12/22 08:19:21;;;;;;;0.40;0.30;;;3.60;99.90;;;;;;5043779;28;20633;-74
2023/12/22 08:21:48;;;;;;;1.87;0.93;;;3.50;99.90;;;;;;5039158;28;20287;-75
2023/12/22 08:24:17;;;;;;;1.57;0.90;;;3.50;99.90;;;;;;5040069;28;20228;-76
2023/12/22 08:26:44;;;;;;;2.33;0.70;;;3.50;99.90;;;;;;5042735;28;20228;-75
2023/12/22 08:29:10;;;;;;;1.10;1.00;;;3.50;99.90;;;;;;5036787;28;20209;-75
2023/12/22 08:31:37;;;;;;;2.00;0.80;;;3.50;99.90;;;;;;5041969;28;20308;-75
2023/12/22 08:34:05;;;;;;;1.10;0.70;;;3.40;99.90;;;;;;5037301;28;20786;-75
2023/12/22 08:36:32;;;;;;;4.07;0.87;;;3.40;99.90;;;;;;5041698;28;20196;-75
2023/12/22 08:38:59;;;;;;;2.53;0.70;;;3.40;99.90;;;;;;5041005;28;20206;-75
2023/12/22 08:41:27;;;;;;;2.27;0.83;;;3.50;99.90;;;;;;5036806;28;20294;-75
2023/12/22 08:43:54;;;;;;;2.83;0.80;;;3.50;99.90;;;;;;5038048;28;20208;-78
2023/12/22 08:46:21;;;;;;;3.67;0.87;;;3.50;99.90;;;;;;5039391;28;20238;-75
2023/12/22 08:48:48;;;;;;;3.57;0.80;;;3.60;99.90;;;;;;5039561;28;20204;-75
2023/12/22 08:51:15;;;;;;;2.00;0.70;;;3.70;99.90;;;;;;5034798;28;20296;-75
2023/12/22 08:53:42;;;;;;;4.27;0.97;;;3.70;99.90;;;;;;5029049;28;20303;-75
2023/12/22 08:56:09;;;;;;;1.63;0.93;;;3.70;99.90;;;;;;5028579;28;20307;-73
2023/12/22 08:58:37;;;;;;;4.10;1.10;;;3.70;99.90;;;;;;5029688;28;20291;-75
2023/12/22 09:01:04;;;;;;;2.27;1.00;;;3.70;99.90;;;;;;5042932;28;20283;-73
2023/12/22 09:03:35;;;;;;;2.43;0.97;;;3.80;99.90;;;;;;5047026;28;20483;-73
2023/12/22 09:06:02;;;;;;;1.97;1.10;;;3.90;99.90;;;;;;5048438;28;20234;-74
2023/12/22 09:08:29;;;;;;;2.27;0.83;;;4.00;99.90;;;;;;5048415;28;20330;-74
2023/12/22 09:10:56;;;;;;;2.20;0.90;;;3.90;99.90;;;;;;5047496;28;20817;-75
2023/12/22 09:13:24;;;;;;;4.23;1.30;;;4.00;99.90;;;;;;5048201;28;20283;-75
2023/12/22 09:15:53;;;;;;;4.57;1.80;;;4.10;99.90;;;;;;5043538;28;20300;-75
2023/12/22 09:18:20;;;;;;;4.40;1.60;;;4.10;99.90;;;;;;5028360;28;20805;-75
2023/12/22 09:20:47;;;;;;;4.70;1.40;;;4.10;99.90;;;;;;5046207;28;20319;-75
2023/12/22 09:23:13;;;;;;;3.50;1.40;;;4.10;99.90;;;;;;5047799;28;20714;-75
2023/12/22 09:25:40;;;;;;;7.40;1.87;;;4.20;99.90;;;;;;5028824;28;20219;-75
2023/12/22 09:28:07;;;;;;;8.23;2.00;;;4.20;99.90;;;;;;5037163;28;20261;-74
2023/12/22 09:30:34;;;;;;;10.17;1.90;;;4.30;99.90;;;;;;5032412;28;20329;-74
2023/12/22 09:33:04;;;;;;;9.23;2.50;;;4.40;99.90;;;;;;5028107;28;20266;-75
2023/12/22 09:35:31;;;;;;;8.00;1.93;;;4.40;99.90;;;;;;5028323;28;20707;-75
2023/12/22 09:37:58;;;;;;;6.33;1.60;;;4.40;99.90;;;;;;5027812;28;20706;-74
2023/12/22 09:40:25;;;;;;;7.13;1.90;;;4.50;99.90;;;;;;5041251;28;20204;-74
2023/12/22 09:42:56;;;;;;;1.93;1.07;;;4.60;99.90;;;;;;5028904;28;20319;-74
2023/12/22 09:45:23;;;;;;;5.87;1.57;;;4.60;99.90;;;;;;5028092;28;20299;-74
2023/12/22 09:47:52;;;;;;;4.07;1.53;;;4.60;99.90;;;;;;5027844;28;20249;-74
2023/12/22 09:50:23;;;;;;;8.53;1.73;;;4.60;99.90;;;;;;5030079;28;20201;-74
2023/12/22 09:52:50;;;;;;;6.40;1.40;;;4.50;99.90;;;;;;5045054;28;20290;-74
2023/12/22 09:55:18;;;;;;;4.30;1.70;;;4.60;99.90;;;;;;5039053;28;20629;-76
2023/12/22 09:57:46;;;;;;;7.70;1.90;;;4.50;99.90;;;;;;5043839;28;20201;-75
2023/12/22 10:00:15;;;;;;;6.57;1.70;;;4.60;99.90;;;;;;5037263;28;20225;-75
2023/12/22 10:02:42;;;;;;;5.40;1.70;;;4.70;99.90;;;;;;5039393;28;20210;-76
2023/12/22 10:05:10;;;;;;;8.23;2.00;;;4.70;99.90;;;;;;5038923;28;20275;-75
2023/12/22 10:07:38;;;;;;;5.03;1.67;;;4.80;99.90;;;;;;5044752;28;20239;-76
2023/12/22 10:10:09;;;;;;;8.60;2.00;;;4.90;99.90;;;;;;5028414;28;20292;-76
2023/12/22 10:12:39;;;;;;;4.33;1.57;;;4.80;99.90;;;;;;5047394;28;20208;-76
2023/12/22 10:15:09;;;;;;;6.57;1.90;;;4.80;99.90;;;;;;5033521;28;20670;-76
2023/12/22 10:17:37;;;;;;;4.93;1.57;;;4.80;99.90;;;;;;5042384;28;20290;-76
2023/12/22 10:20:04;;;;;;;6.90;1.63;;;4.90;99.90;;;;;;5046816;28;20204;-76
2023/12/22 10:22:31;;;;;;;7.90;2.00;;;5.00;99.90;;;;;;5045779;28;20201;-76
2023/12/22 10:24:59;;;;;;;4.60;1.63;;;4.90;99.90;;;;;;5049439;28;20675;-76
2023/12/22 10:27:26;;;;;;;9.47;2.00;;;5.00;99.90;;;;;;5047355;28;20345;-76
2023/12/22 10:29:56;;;;;;;8.10;1.90;;;5.10;99.90;;;;;;5047392;28;20226;-76
2023/12/22 10:32:23;;;;;;;6.33;1.73;;;5.20;99.90;;;;;;5047090;28;20208;-76
2023/12/22 10:34:52;;;;;;;4.30;2.07;;;5.30;99.90;;;;;;5046313;28;20334;-76
2023/12/22 10:37:21;;;;;;;4.50;1.80;;;5.30;99.90;;;;;;5029663;28;20233;-76
2023/12/22 10:39:49;;;;;;;9.07;2.17;;;5.20;99.90;;;;;;5026927;28;20791;-77
2023/12/22 10:42:17;;;;;;;8.57;1.90;;;5.10;99.90;;;;;;5037827;28;20207;-76
2023/12/22 10:44:45;;;;;;;11.17;2.03;;;5.10;99.90;;;;;;5034534;28;20738;-76
2023/12/22 10:47:12;;;;;;;6.50;1.90;;;5.20;99.90;;;;;;5026771;28;20325;-76
2023/12/22 10:49:40;;;;;;;3.77;1.60;;;5.20;99.90;;;;;;5043378;28;20208;-76
2023/12/22 10:52:07;;;;;;;7.77;1.40;;;5.40;99.90;;;;;;5046611;28;20247;-76
2023/12/22 10:54:36;;;;;;;5.23;1.83;;;5.40;99.90;;;;;;5045956;28;20203;-76
2023/12/22 10:57:04;;;;;;;6.63;1.87;;;5.40;99.90;;;;;;5046831;28;20572;-77
2023/12/22 10:59:36;;;;;;;5.47;1.40;;;5.50;99.90;;;;;;5036570;28;20319;-77
2023/12/22 11:02:04;;;;;;;4.67;1.77;;;5.50;99.90;;;;;;5027606;28;20225;-76
2023/12/22 11:04:33;;;;;;;6.37;1.70;;;5.60;99.90;;;;;;5026662;28;20292;-77
2023/12/22 11:07:04;;;;;;;6.87;1.30;;;5.60;99.90;;;;;;5026119;28;20723;-76
2023/12/22 11:09:33;;;;;;;5.13;1.83;;;5.50;99.90;;;;;;5041880;28;20323;-77
2023/12/22 11:12:01;;;;;;;5.43;2.13;;;5.50;99.90;;;;;;5041403;28;20304;-76
2023/12/22 11:14:31;;;;;;;9.00;2.40;;;5.50;99.90;;;;;;5044758;28;20212;-76
2023/12/22 11:17:01;;;;;;;4.10;1.60;;;5.40;99.90;;;;;;5030224;28;20731;-77
2023/12/22 11:19:30;;;;;;;8.47;1.90;;;5.30;99.90;;;;;;5025943;28;20836;-77
2023/12/22 11:21:59;;;;;;;4.60;1.60;;;5.50;99.90;;;;;;5065768;28;20298;-76
2023/12/22 11:24:29;;;;;;;5.00;1.43;;;5.60;99.90;;;;;;5056885;28;20206;-77
2023/12/22 11:26:59;;;;;;;6.67;1.70;;;5.70;99.90;;;;;;5045679;28;20274;-77
2023/12/22 11:29:27;;;;;;;4.17;1.77;;;5.80;99.90;;;;;;5045762;28;20204;-77
2023/12/22 11:31:56;;;;;;;4.13;1.17;;;5.80;99.90;;;;;;5045656;28;20210;-77
2023/12/22 11:34:27;;;;;;;4.97;1.70;;;5.90;99.90;;;;;;5039049;28;20338;-76
2023/12/22 11:36:55;;;;;;;4.70;1.80;;;5.90;99.90;;;;;;5040604;28;20243;-76
2023/12/22 11:39:22;;;;;;;7.20;1.97;;;5.90;99.90;;;;;;5046579;28;20641;-76
2023/12/22 11:41:52;;;;;;;2.93;1.30;;;6.00;99.90;;;;;;5045735;28;20238;-77
2023/12/22 11:44:19;;;;;;;3.03;0.93;;;5.90;99.90;;;;;;5045526;28;20593;-77
2023/12/22 11:46:47;;;;;;;4.77;1.50;;;5.70;99.90;;;;;;5043916;28;20816;-76
2023/12/22 11:49:14;;;;;;;4.50;1.47;;;5.70;99.90;;;;;;5045807;28;21066;-77
2023/12/22 11:51:42;;;;;;;6.83;1.53;;;5.70;99.90;;;;;;5045935;28;20212;-77
2023/12/22 11:54:42;;;;;;;8.43;1.77;;;5.60;99.90;;;;;;5045490;28;20196;-77
2023/12/22 11:57:31;;;;;;;3.43;1.50;;;5.50;99.90;;;;;;5045922;28;20705;-77
2023/12/22 11:59:59;;;;;;;3.83;1.33;;;5.50;99.90;;;;;;5040095;28;20204;-78
2023/12/22 12:02:26;;;;;;;5.40;1.73;;;5.40;99.90;;;;;;5025645;28;20303;-79
2023/12/22 12:04:54;;;;;;;4.40;1.30;;;5.40;99.90;;;;;;5034600;28;20302;-78
2023/12/22 12:07:40;;;;;;;5.73;1.60;;;5.40;99.90;;;;;;5045712;28;20267;-79
2023/12/22 12:10:08;;;;;;;3.53;1.33;;;5.40;99.90;;;;;;5035120;28;20204;-79
2023/12/22 12:12:36;;;;;;;5.53;1.53;;;5.40;99.90;;;;;;5045469;28;20215;-78
2023/12/22 12:15:18;;;;;;;7.20;1.80;;;5.40;99.90;;;;;;5046094;28;20211;-80
2023/12/22 12:17:46;;;;;;;6.60;1.53;;;5.40;99.90;;;;;;5045859;28;20311;-74
2023/12/22 12:20:13;;;;;;;5.20;1.90;;;5.30;99.90;;;;;;5045675;28;20226;-78
2023/12/22 12:22:44;;;;;;;5.97;1.30;;;5.30;99.90;;;;;;5044440;28;20785;-79
2023/12/22 12:25:12;;;;;;;4.40;1.57;;;5.30;99.90;;;;;;5045576;28;20551;-78
2023/12/22 12:27:40;;;;;;;3.60;1.50;;;5.30;99.90;;;;;;5045202;28;20235;-79
2023/12/22 12:30:14;;;;;;;5.30;1.50;;;5.20;99.90;;;;;;5045188;28;20269;-78
2023/12/22 12:32:45;;;;;;;4.33;1.27;;;5.30;99.90;;;;;;5034553;28;20307;-79
2023/12/22 12:35:12;;;;;;;6.40;1.37;;;5.40;99.90;;;;;;5028911;28;20204;-78
2023/12/22 12:37:41;;;;;;;5.63;1.70;;;5.40;99.90;;;;;;5043610;28;20256;-79
2023/12/22 12:40:12;;;;;;;3.57;1.57;;;5.30;99.90;;;;;;5026131;28;20209;-80
2023/12/22 12:42:39;;;;;;;6.07;1.70;;;5.30;99.90;;;;;;5043811;28;20251;-80
2023/12/22 12:45:08;;;;;;;3.53;1.33;;;5.30;99.90;;;;;;5033866;28;20288;-80
2023/12/22 12:47:35;;;;;;;6.13;2.00;;;5.20;99.90;;;;;;5027871;28;20264;-80
2023/12/22 12:50:02;;;;;;;4.20;1.80;;;5.20;99.90;;;;;;5025029;28;20291;-80
2023/12/22 12:52:30;;;;;;;2.97;1.43;;;5.20;99.90;;;;;;5024681;28;20312;-80
2023/12/22 12:55:00;;;;;;;3.60;1.63;;;5.10;99.90;;;;;;5025849;28;20303;-79
2023/12/22 12:57:27;;;;;;;9.17;1.70;;;5.10;99.90;;;;;;5042506;28;20214;-80
2023/12/22 12:59:54;;;;;;;10.00;2.00;;;5.30;99.90;;;;;;5044860;28;20330;-79
2023/12/22 13:02:22;;;;;;;4.43;1.70;;;5.50;99.90;;;;;;5047665;28;20270;-79